sensor_id;sensor_type;location;lat;lon;timestamp;pressure;altitude;pressure_sealevel;temperature;humidity
77702;BME280;66868;42.708;23.404;2023-05-28T00:01:49;95050.75;;;15.24;nan
77702;BME280;66868;42.708;23.404;2023-05-28T00:04:15;95061.84;;;15.34;nan
77702;BME280;66868;42.708;23.404;2023-05-28T00:06:41;95063.03;;;15.19;nan
77702;BME280;66868;42.708;23.404;2023-05-28T00:09:07;95069.53;;;15.12;nan
77702;BME280;66868;42.708;23.404;2023-05-28T00:11:34;95062.59;;;15.03;nan
77702;BME280;66868;42.708;23.404;2023-05-28T00:13:59;95046.72;;;14.99;nan
77702;BME280;66868;42.708;23.404;2023-05-28T00:16:24;95068.03;;;15.10;nan
77702;BME280;66868;42.708;23.404;2023-05-28T00:18:50;95056.56;;;15.15;nan
77702;BME280;66868;42.708;23.404;2023-05-28T00:21:15;95047.66;;;14.87;nan
77702;BME280;66868;42.708;23.404;2023-05-28T00:23:41;95057.47;;;15.03;nan
77702;BME280;66868;42.708;23.404;2023-05-28T00:26:06;95049.88;;;14.92;nan
77702;BME280;66868;42.708;23.404;2023-05-28T00:28:32;95053.09;;;14.94;nan
77702;BME280;66868;42.708;23.404;2023-05-28T00:30:57;95051.25;;;14.96;nan
77702;BME280;66868;42.708;23.404;2023-05-28T00:33:23;95038.97;;;15.01;nan
77702;BME280;66868;42.708;23.404;2023-05-28T00:35:48;95041.41;;;15.02;nan
77702;BME280;66868;42.708;23.404;2023-05-28T00:38:20;95040.09;;;15.08;nan
77702;BME280;66868;42.708;23.404;2023-05-28T00:40:45;95038.97;;;15.01;nan
77702;BME280;66868;42.708;23.404;2023-05-28T00:43:10;95035.94;;;15.07;nan
77702;BME280;66868;42.708;23.404;2023-05-28T00:45:36;95040.34;;;15.05;nan
77702;BME280;66868;42.708;23.404;2023-05-28T00:48:01;95033.63;;;15.04;nan
77702;BME280;66868;42.708;23.404;2023-05-28T00:50:27;94993.59;;;14.73;nan
77702;BME280;66868;42.708;23.404;2023-05-28T00:52:54;95027.94;;;15.00;nan
77702;BME280;66868;42.708;23.404;2023-05-28T00:55:21;95023.91;;;14.76;nan
77702;BME280;66868;42.708;23.404;2023-05-28T00:57:47;95028.66;;;14.80;nan
77702;BME280;66868;42.708;23.404;2023-05-28T01:00:13;95015.81;;;14.82;nan
77702;BME280;66868;42.708;23.404;2023-05-28T01:02:39;95024.63;;;14.89;nan
77702;BME280;66868;42.708;23.404;2023-05-28T01:05:05;95033.19;;;14.88;nan
77702;BME280;66868;42.708;23.404;2023-05-28T01:07:31;95025.53;;;14.88;nan
77702;BME280;66868;42.708;23.404;2023-05-28T01:09:57;95023.56;;;14.91;nan
77702;BME280;66868;42.708;23.404;2023-05-28T01:12:23;95025.88;;;14.94;nan
77702;BME280;66868;42.708;23.404;2023-05-28T01:14:50;95026.88;;;15.03;nan
77702;BME280;66868;42.708;23.404;2023-05-28T01:17:15;95014.19;;;14.92;nan
77702;BME280;66868;42.708;23.404;2023-05-28T01:19:41;95019.25;;;15.03;nan
77702;BME280;66868;42.708;23.404;2023-05-28T01:22:07;95010.47;;;14.96;nan
77702;BME280;66868;42.708;23.404;2023-05-28T01:24:35;95015.41;;;15.09;nan
77702;BME280;66868;42.708;23.404;2023-05-28T01:27:04;95012.19;;;15.07;nan
77702;BME280;66868;42.708;23.404;2023-05-28T01:29:31;94998.63;;;14.95;nan
77702;BME280;66868;42.708;23.404;2023-05-28T01:31:56;95001.41;;;15.03;nan
77702;BME280;66868;42.708;23.404;2023-05-28T01:34:21;95019.22;;;15.14;nan
77702;BME280;66868;42.708;23.404;2023-05-28T01:36:54;95003.53;;;14.98;nan
77702;BME280;66868;42.708;23.404;2023-05-28T01:39:24;95005.13;;;14.99;nan
77702;BME280;66868;42.708;23.404;2023-05-28T01:41:51;95011.13;;;15.09;nan
77702;BME280;66868;42.708;23.404;2023-05-28T01:44:17;95010.88;;;15.12;nan
77702;BME280;66868;42.708;23.404;2023-05-28T01:46:46;95006.94;;;15.19;nan
77702;BME280;66868;42.708;23.404;2023-05-28T01:49:14;94985.97;;;15.16;nan
77702;BME280;66868;42.708;23.404;2023-05-28T01:51:40;95001.84;;;15.19;nan
77702;BME280;66868;42.708;23.404;2023-05-28T01:54:06;95004.50;;;15.18;nan
77702;BME280;66868;42.708;23.404;2023-05-28T01:56:31;94999.66;;;15.15;nan
77702;BME280;66868;42.708;23.404;2023-05-28T01:58:57;95003.13;;;15.14;nan
77702;BME280;66868;42.708;23.404;2023-05-28T02:01:28;94940.78;;;14.75;nan
77702;BME280;66868;42.708;23.404;2023-05-28T02:03:54;95003.03;;;15.04;nan
77702;BME280;66868;42.708;23.404;2023-05-28T02:06:21;94988.91;;;15.00;nan
77702;BME280;66868;42.708;23.404;2023-05-28T02:08:46;95005.31;;;15.18;nan
77702;BME280;66868;42.708;23.404;2023-05-28T02:11:12;94990.06;;;15.07;nan
77702;BME280;66868;42.708;23.404;2023-05-28T02:13:37;95001.38;;;15.25;nan
77702;BME280;66868;42.708;23.404;2023-05-28T02:16:05;95007.63;;;15.21;nan
77702;BME280;66868;42.708;23.404;2023-05-28T02:18:31;95014.94;;;15.15;nan
77702;BME280;66868;42.708;23.404;2023-05-28T02:20:57;95013.69;;;15.09;nan
77702;BME280;66868;42.708;23.404;2023-05-28T02:23:22;95015.56;;;15.07;nan
77702;BME280;66868;42.708;23.404;2023-05-28T02:25:47;95012.09;;;14.97;nan
77702;BME280;66868;42.708;23.404;2023-05-28T02:28:13;95005.81;;;14.90;nan
77702;BME280;66868;42.708;23.404;2023-05-28T02:30:38;95013.56;;;14.99;nan
77702;BME280;66868;42.708;23.404;2023-05-28T02:33:04;95007.66;;;14.99;nan
77702;BME280;66868;42.708;23.404;2023-05-28T02:35:31;94990.56;;;14.79;nan
77702;BME280;66868;42.708;23.404;2023-05-28T02:37:56;95013.72;;;14.98;nan
77702;BME280;66868;42.708;23.404;2023-05-28T02:40:21;95001.66;;;15.00;nan
77702;BME280;66868;42.708;23.404;2023-05-28T02:42:47;95015.66;;;15.06;nan
77702;BME280;66868;42.708;23.404;2023-05-28T02:45:12;95001.03;;;15.08;nan
77702;BME280;66868;42.708;23.404;2023-05-28T02:47:38;95017.03;;;15.21;nan
77702;BME280;66868;42.708;23.404;2023-05-28T02:50:04;95018.41;;;15.25;nan
77702;BME280;66868;42.708;23.404;2023-05-28T02:52:30;95016.06;;;15.22;nan
77702;BME280;66868;42.708;23.404;2023-05-28T02:54:55;95021.66;;;15.16;nan
77702;BME280;66868;42.708;23.404;2023-05-28T02:57:21;95015.50;;;15.18;nan
77702;BME280;66868;42.708;23.404;2023-05-28T02:59:47;95022.00;;;15.22;nan
77702;BME280;66868;42.708;23.404;2023-05-28T03:02:12;95016.22;;;15.20;nan
77702;BME280;66868;42.708;23.404;2023-05-28T03:04:37;95016.31;;;15.19;nan
77702;BME280;66868;42.708;23.404;2023-05-28T03:07:03;95011.13;;;15.09;nan
77702;BME280;66868;42.708;23.404;2023-05-28T03:09:28;95013.22;;;15.04;nan
77702;BME280;66868;42.708;23.404;2023-05-28T03:11:54;95017.75;;;15.12;nan
77702;BME280;66868;42.708;23.404;2023-05-28T03:14:19;95013.00;;;15.07;nan
77702;BME280;66868;42.708;23.404;2023-05-28T03:16:44;95024.13;;;14.95;nan
77702;BME280;66868;42.708;23.404;2023-05-28T03:19:10;95019.53;;;14.89;nan
77702;BME280;66868;42.708;23.404;2023-05-28T03:21:35;95018.81;;;14.87;nan
77702;BME280;66868;42.708;23.404;2023-05-28T03:24:01;95001.44;;;14.81;nan
77702;BME280;66868;42.708;23.404;2023-05-28T03:26:26;95016.22;;;15.09;nan
77702;BME280;66868;42.708;23.404;2023-05-28T03:28:52;95024.22;;;15.16;nan
77702;BME280;66868;42.708;23.404;2023-05-28T03:31:19;95007.44;;;15.02;nan
77702;BME280;66868;42.708;23.404;2023-05-28T03:33:45;95018.53;;;15.12;nan
77702;BME280;66868;42.708;23.404;2023-05-28T03:36:10;95009.66;;;14.95;nan
77702;BME280;66868;42.708;23.404;2023-05-28T03:38:35;95023.19;;;15.07;nan
77702;BME280;66868;42.708;23.404;2023-05-28T03:41:01;95022.75;;;15.02;nan
77702;BME280;66868;42.708;23.404;2023-05-28T03:43:26;95023.31;;;14.94;nan
77702;BME280;66868;42.708;23.404;2023-05-28T03:45:51;95007.47;;;14.80;nan
77702;BME280;66868;42.708;23.404;2023-05-28T03:48:17;95023.66;;;15.01;nan
77702;BME280;66868;42.708;23.404;2023-05-28T03:50:42;95023.75;;;15.11;nan
77702;BME280;66868;42.708;23.404;2023-05-28T03:53:08;94998.44;;;14.87;nan
77702;BME280;66868;42.708;23.404;2023-05-28T03:55:33;95010.47;;;14.96;nan
77702;BME280;66868;42.708;23.404;2023-05-28T03:58:01;95025.28;;;15.02;nan
77702;BME280;66868;42.708;23.404;2023-05-28T04:00:26;95018.97;;;15.17;nan
77702;BME280;66868;42.708;23.404;2023-05-28T04:02:52;95011.13;;;15.20;nan
77702;BME280;66868;42.708;23.404;2023-05-28T04:05:18;95034.72;;;15.33;nan
77702;BME280;66868;42.708;23.404;2023-05-28T04:07:43;95029.16;;;15.39;nan
77702;BME280;66868;42.708;23.404;2023-05-28T04:10:09;95026.91;;;15.46;nan
77702;BME280;66868;42.708;23.404;2023-05-28T04:12:34;95028.19;;;15.40;nan
77702;BME280;66868;42.708;23.404;2023-05-28T04:14:59;95030.78;;;15.29;nan
77702;BME280;66868;42.708;23.404;2023-05-28T04:17:25;95027.44;;;15.29;nan
77702;BME280;66868;42.708;23.404;2023-05-28T04:19:53;95030.34;;;15.24;nan
77702;BME280;66868;42.708;23.404;2023-05-28T04:22:18;95032.06;;;15.24;nan
77702;BME280;66868;42.708;23.404;2023-05-28T04:24:44;94985.78;;;14.96;nan
77702;BME280;66868;42.708;23.404;2023-05-28T04:27:10;95027.69;;;15.26;nan
77702;BME280;66868;42.708;23.404;2023-05-28T04:29:36;95038.91;;;15.34;nan
77702;BME280;66868;42.708;23.404;2023-05-28T04:32:02;95033.75;;;15.45;nan
77702;BME280;66868;42.708;23.404;2023-05-28T04:34:29;95028.41;;;15.48;nan
77702;BME280;66868;42.708;23.404;2023-05-28T04:36:54;95025.72;;;15.61;nan
77702;BME280;66868;42.708;23.404;2023-05-28T04:39:21;95014.09;;;15.68;nan
77702;BME280;66868;42.708;23.404;2023-05-28T04:41:48;95017.53;;;15.78;nan
77702;BME280;66868;42.708;23.404;2023-05-28T04:44:14;95019.59;;;15.84;nan
77702;BME280;66868;42.708;23.404;2023-05-28T04:46:42;95025.22;;;15.99;nan
77702;BME280;66868;42.708;23.404;2023-05-28T04:49:09;95027.25;;;16.05;nan
77702;BME280;66868;42.708;23.404;2023-05-28T04:51:34;95042.88;;;16.12;nan
77702;BME280;66868;42.708;23.404;2023-05-28T04:54:02;95036.84;;;16.13;nan
77702;BME280;66868;42.708;23.404;2023-05-28T04:56:27;95037.28;;;16.18;nan
77702;BME280;66868;42.708;23.404;2023-05-28T04:58:53;95041.31;;;16.20;nan
77702;BME280;66868;42.708;23.404;2023-05-28T05:01:19;95026.63;;;16.13;nan
77702;BME280;66868;42.708;23.404;2023-05-28T05:03:44;95038.94;;;16.28;nan
77702;BME280;66868;42.708;23.404;2023-05-28T05:06:09;95039.81;;;16.39;nan
77702;BME280;66868;42.708;23.404;2023-05-28T05:08:36;95028.00;;;16.47;nan
77702;BME280;66868;42.708;23.404;2023-05-28T05:11:01;95041.56;;;16.59;nan
77702;BME280;66868;42.708;23.404;2023-05-28T05:13:27;95019.50;;;16.58;nan
77702;BME280;66868;42.708;23.404;2023-05-28T05:15:52;95036.63;;;16.67;nan
77702;BME280;66868;42.708;23.404;2023-05-28T05:18:18;95015.47;;;16.65;nan
77702;BME280;66868;42.708;23.404;2023-05-28T05:20:43;95030.38;;;16.90;nan
77702;BME280;66868;42.708;23.404;2023-05-28T05:23:08;95042.66;;;16.96;nan
77702;BME280;66868;42.708;23.404;2023-05-28T05:25:34;95034.97;;;16.96;nan
77702;BME280;66868;42.708;23.404;2023-05-28T05:27:59;95035.66;;;16.98;nan
77702;BME280;66868;42.708;23.404;2023-05-28T05:30:25;95027.97;;;16.98;nan
77702;BME280;66868;42.708;23.404;2023-05-28T05:32:51;95031.09;;;17.11;nan
77702;BME280;66868;42.708;23.404;2023-05-28T05:35:16;95002.25;;;16.90;nan
77702;BME280;66868;42.708;23.404;2023-05-28T05:37:41;95023.13;;;16.95;nan
77702;BME280;66868;42.708;23.404;2023-05-28T05:40:07;95020.56;;;16.95;nan
77702;BME280;66868;42.708;23.404;2023-05-28T05:42:34;95016.41;;;17.04;nan
77702;BME280;66868;42.708;23.404;2023-05-28T05:44:59;95035.03;;;17.15;nan
77702;BME280;66868;42.708;23.404;2023-05-28T05:47:25;95024.94;;;17.23;nan
77702;BME280;66868;42.708;23.404;2023-05-28T05:49:51;95026.16;;;17.39;nan
77702;BME280;66868;42.708;23.404;2023-05-28T05:52:16;95032.09;;;17.49;nan
77702;BME280;66868;42.708;23.404;2023-05-28T05:54:42;95045.59;;;17.51;nan
77702;BME280;66868;42.708;23.404;2023-05-28T05:57:08;95042.34;;;17.49;nan
77702;BME280;66868;42.708;23.404;2023-05-28T05:59:33;95042.63;;;17.55;nan
77702;BME280;66868;42.708;23.404;2023-05-28T06:01:59;95046.94;;;17.55;nan
77702;BME280;66868;42.708;23.404;2023-05-28T06:04:24;95043.44;;;17.56;nan
77702;BME280;66868;42.708;23.404;2023-05-28T06:06:50;95025.25;;;17.49;nan
77702;BME280;66868;42.708;23.404;2023-05-28T06:09:15;95048.84;;;17.72;nan
77702;BME280;66868;42.708;23.404;2023-05-28T06:11:41;95025.25;;;17.49;nan
77702;BME280;66868;42.708;23.404;2023-05-28T06:14:07;95022.28;;;17.54;nan
77702;BME280;66868;42.708;23.404;2023-05-28T06:16:32;95041.16;;;17.62;nan
77702;BME280;66868;42.708;23.404;2023-05-28T06:18:58;95046.13;;;17.54;nan
77702;BME280;66868;42.708;23.404;2023-05-28T06:21:23;95048.56;;;17.56;nan
77702;BME280;66868;42.708;23.404;2023-05-28T06:23:49;95054.34;;;17.58;nan
77702;BME280;66868;42.708;23.404;2023-05-28T06:26:15;95054.31;;;17.29;nan
77702;BME280;66868;42.708;23.404;2023-05-28T06:28:40;95055.50;;;17.15;nan
77702;BME280;66868;42.708;23.404;2023-05-28T06:31:06;95053.56;;;17.08;nan
77702;BME280;66868;42.708;23.404;2023-05-28T06:33:31;95056.25;;;17.06;nan
77702;BME280;66868;42.708;23.404;2023-05-28T06:35:57;95038.97;;;16.89;nan
77702;BME280;66868;42.708;23.404;2023-05-28T06:38:22;95061.59;;;16.94;nan
77702;BME280;66868;42.708;23.404;2023-05-28T06:40:47;95057.31;;;16.94;nan
77702;BME280;66868;42.708;23.404;2023-05-28T06:43:13;95057.03;;;16.97;nan
77702;BME280;66868;42.708;23.404;2023-05-28T06:45:38;95054.63;;;16.96;nan
77702;BME280;66868;42.708;23.404;2023-05-28T06:48:04;95059.91;;;17.04;nan
77702;BME280;66868;42.708;23.404;2023-05-28T06:50:29;95040.31;;;17.23;nan
77702;BME280;66868;42.708;23.404;2023-05-28T06:52:55;95060.69;;;17.54;nan
77702;BME280;66868;42.708;23.404;2023-05-28T06:55:21;95060.44;;;17.57;nan
77702;BME280;66868;42.708;23.404;2023-05-28T06:57:46;95068.00;;;17.68;nan
77702;BME280;66868;42.708;23.404;2023-05-28T07:00:12;95061.81;;;17.61;nan
77702;BME280;66868;42.708;23.404;2023-05-28T07:02:44;95068.81;;;17.69;nan
77702;BME280;66868;42.708;23.404;2023-05-28T07:05:09;95071.78;;;17.83;nan
77702;BME280;66868;42.708;23.404;2023-05-28T07:07:34;95065.31;;;17.98;nan
77702;BME280;66868;42.708;23.404;2023-05-28T07:10:00;95055.59;;;17.92;nan
77702;BME280;66868;42.708;23.404;2023-05-28T07:12:26;95048.19;;;17.89;nan
77702;BME280;66868;42.708;23.404;2023-05-28T07:14:51;95056.66;;;18.19;nan
77702;BME280;66868;42.708;23.404;2023-05-28T07:17:17;95027.41;;;18.12;nan
77702;BME280;66868;42.708;23.404;2023-05-28T07:19:42;95063.22;;;18.40;nan
77702;BME280;66868;42.708;23.404;2023-05-28T07:22:08;95056.59;;;18.57;nan
77702;BME280;66868;42.708;23.404;2023-05-28T07:24:33;95056.25;;;18.79;nan
77702;BME280;66868;42.708;23.404;2023-05-28T07:26:58;95052.94;;;18.96;nan
77702;BME280;66868;42.708;23.404;2023-05-28T07:29:26;95057.16;;;19.15;nan
77702;BME280;66868;42.708;23.404;2023-05-28T07:31:52;95058.44;;;19.29;nan
77702;BME280;66868;42.708;23.404;2023-05-28T07:34:17;95058.09;;;19.51;nan
77702;BME280;66868;42.708;23.404;2023-05-28T07:36:43;95050.59;;;19.75;nan
77702;BME280;66868;42.708;23.404;2023-05-28T07:39:08;95057.78;;;19.90;nan
77702;BME280;66868;42.708;23.404;2023-05-28T07:41:35;95051.94;;;19.97;nan
77702;BME280;66868;42.708;23.404;2023-05-28T07:44:01;95055.44;;;20.14;nan
77702;BME280;66868;42.708;23.404;2023-05-28T07:46:26;95043.88;;;20.18;nan
77702;BME280;66868;42.708;23.404;2023-05-28T07:48:52;95061.16;;;20.43;nan
77702;BME280;66868;42.708;23.404;2023-05-28T07:51:17;95064.63;;;20.34;nan
77702;BME280;66868;42.708;23.404;2023-05-28T07:53:44;95059.03;;;20.39;nan
77702;BME280;66868;42.708;23.404;2023-05-28T07:56:09;95054.16;;;20.36;nan
77702;BME280;66868;42.708;23.404;2023-05-28T07:58:38;95057.47;;;20.28;nan
77702;BME280;66868;42.708;23.404;2023-05-28T08:01:03;95051.59;;;20.18;nan
77702;BME280;66868;42.708;23.404;2023-05-28T08:03:34;95043.56;;;20.21;nan
77702;BME280;66868;42.708;23.404;2023-05-28T08:05:59;95046.09;;;20.31;nan
77702;BME280;66868;42.708;23.404;2023-05-28T08:08:26;95042.25;;;20.35;nan
77702;BME280;66868;42.708;23.404;2023-05-28T08:10:52;95050.41;;;20.30;nan
77702;BME280;66868;42.708;23.404;2023-05-28T08:13:17;95061.66;;;20.29;nan
77702;BME280;66868;42.708;23.404;2023-05-28T08:15:43;95053.06;;;20.38;nan
77702;BME280;66868;42.708;23.404;2023-05-28T08:18:08;95059.16;;;20.37;nan
77702;BME280;66868;42.708;23.404;2023-05-28T08:20:34;94994.63;;;20.05;nan
77702;BME280;66868;42.708;23.404;2023-05-28T08:23:00;95035.13;;;20.46;nan
77702;BME280;66868;42.708;23.404;2023-05-28T08:25:27;95061.63;;;20.72;nan
77702;BME280;66868;42.708;23.404;2023-05-28T08:27:53;95046.34;;;20.71;nan
77702;BME280;66868;42.708;23.404;2023-05-28T08:30:18;95065.19;;;20.71;nan
77702;BME280;66868;42.708;23.404;2023-05-28T08:32:43;95063.56;;;20.70;nan
77702;BME280;66868;42.708;23.404;2023-05-28T08:35:09;95032.59;;;20.54;nan
77702;BME280;66868;42.708;23.404;2023-05-28T08:37:34;95056.78;;;20.69;nan
77702;BME280;66868;42.708;23.404;2023-05-28T08:40:00;95053.44;;;20.77;nan
77702;BME280;66868;42.708;23.404;2023-05-28T08:42:25;95051.59;;;20.95;nan
77702;BME280;66868;42.708;23.404;2023-05-28T08:44:54;95054.31;;;21.20;nan
77702;BME280;66868;42.708;23.404;2023-05-28T08:47:21;95048.06;;;21.22;nan
77702;BME280;66868;42.708;23.404;2023-05-28T08:49:51;95042.34;;;21.52;nan
77702;BME280;66868;42.708;23.404;2023-05-28T08:52:20;95054.59;;;21.83;nan
77702;BME280;66868;42.708;23.404;2023-05-28T08:54:49;95045.66;;;21.95;nan
77702;BME280;66868;42.708;23.404;2023-05-28T08:57:15;95044.97;;;21.69;nan
77702;BME280;66868;42.708;23.404;2023-05-28T08:59:41;95047.84;;;21.74;nan
77702;BME280;66868;42.708;23.404;2023-05-28T09:02:07;95018.34;;;21.52;nan
77702;BME280;66868;42.708;23.404;2023-05-28T09:04:34;95047.50;;;21.52;nan
77702;BME280;66868;42.708;23.404;2023-05-28T09:06:59;95048.31;;;21.61;nan
77702;BME280;66868;42.708;23.404;2023-05-28T09:09:25;95042.69;;;21.74;nan
77702;BME280;66868;42.708;23.404;2023-05-28T09:11:57;95045.59;;;21.79;nan
77702;BME280;66868;42.708;23.404;2023-05-28T09:14:23;95014.19;;;21.75;nan
77702;BME280;66868;42.708;23.404;2023-05-28T09:16:48;95026.94;;;21.93;nan
77702;BME280;66868;42.708;23.404;2023-05-28T09:19:15;95041.13;;;22.05;nan
77702;BME280;66868;42.708;23.404;2023-05-28T09:21:52;95044.34;;;22.23;nan
77702;BME280;66868;42.708;23.404;2023-05-28T09:24:17;95036.59;;;22.31;nan
77702;BME280;66868;42.708;23.404;2023-05-28T09:26:43;95054.97;;;22.44;nan
77702;BME280;66868;42.708;23.404;2023-05-28T09:29:12;95036.91;;;22.36;nan
77702;BME280;66868;42.708;23.404;2023-05-28T09:31:40;95044.69;;;22.04;nan
77702;BME280;66868;42.708;23.404;2023-05-28T09:34:05;95053.03;;;21.82;nan
77702;BME280;66868;42.708;23.404;2023-05-28T09:36:31;95055.56;;;21.66;nan
77702;BME280;66868;42.708;23.404;2023-05-28T09:38:57;95049.75;;;21.55;nan
77702;BME280;66868;42.708;23.404;2023-05-28T09:41:23;95052.56;;;21.28;nan
77702;BME280;66868;42.708;23.404;2023-05-28T09:44:00;95066.69;;;21.16;nan
77702;BME280;66868;42.708;23.404;2023-05-28T09:46:30;95059.31;;;21.21;nan
77702;BME280;66868;42.708;23.404;2023-05-28T09:48:56;95054.19;;;21.29;nan
77702;BME280;66868;42.708;23.404;2023-05-28T09:51:26;95060.03;;;21.47;nan
77702;BME280;66868;42.708;23.404;2023-05-28T09:54:00;95046.53;;;21.70;nan
77702;BME280;66868;42.708;23.404;2023-05-28T09:56:28;95049.50;;;22.15;nan
77702;BME280;66868;42.708;23.404;2023-05-28T09:59:01;95052.06;;;22.31;nan
77702;BME280;66868;42.708;23.404;2023-05-28T10:01:31;95034.31;;;22.44;nan
77702;BME280;66868;42.708;23.404;2023-05-28T10:04:09;95055.47;;;22.24;nan
77702;BME280;66868;42.708;23.404;2023-05-28T10:06:38;95026.94;;;22.09;nan
77702;BME280;66868;42.708;23.404;2023-05-28T10:09:04;95044.03;;;22.10;nan
77702;BME280;66868;42.708;23.404;2023-05-28T10:11:38;95067.25;;;22.42;nan
77702;BME280;66868;42.708;23.404;2023-05-28T10:14:05;95046.25;;;22.54;nan
77702;BME280;66868;42.708;23.404;2023-05-28T10:16:32;95065.84;;;22.95;nan
77702;BME280;66868;42.708;23.404;2023-05-28T10:18:57;95054.88;;;23.01;nan
77702;BME280;66868;42.708;23.404;2023-05-28T10:21:23;95071.88;;;23.26;nan
77702;BME280;66868;42.708;23.404;2023-05-28T10:23:49;95069.66;;;23.15;nan
77702;BME280;66868;42.708;23.404;2023-05-28T10:26:15;95079.34;;;23.13;nan
77702;BME280;66868;42.708;23.404;2023-05-28T10:28:41;95065.09;;;23.25;nan
77702;BME280;66868;42.708;23.404;2023-05-28T10:31:08;95057.97;;;23.27;nan
77702;BME280;66868;42.708;23.404;2023-05-28T10:33:42;95063.84;;;23.13;nan
77702;BME280;66868;42.708;23.404;2023-05-28T10:36:12;95057.84;;;23.21;nan
77702;BME280;66868;42.708;23.404;2023-05-28T10:38:45;95037.97;;;23.29;nan
77702;BME280;66868;42.708;23.404;2023-05-28T10:41:11;95065.50;;;23.53;nan
77702;BME280;66868;42.708;23.404;2023-05-28T10:43:40;95069.41;;;23.72;nan
77702;BME280;66868;42.708;23.404;2023-05-28T10:46:14;95064.13;;;23.88;nan
77702;BME280;66868;42.708;23.404;2023-05-28T10:48:41;95060.91;;;24.09;nan
77702;BME280;66868;42.708;23.404;2023-05-28T10:51:07;95056.19;;;24.35;nan
77702;BME280;66868;42.708;23.404;2023-05-28T10:53:33;95056.22;;;24.50;nan
77702;BME280;66868;42.708;23.404;2023-05-28T10:56:01;95050.44;;;24.62;nan
77702;BME280;66868;42.708;23.404;2023-05-28T11:03:47;95043.38;;;24.71;nan
77702;BME280;66868;42.708;23.404;2023-05-28T11:06:16;95037.06;;;24.59;nan
77702;BME280;66868;42.708;23.404;2023-05-28T11:08:48;95033.13;;;24.63;nan
77702;BME280;66868;42.708;23.404;2023-05-28T11:11:17;95033.13;;;24.63;nan
77702;BME280;66868;42.708;23.404;2023-05-28T11:13:44;95044.16;;;24.57;nan
77702;BME280;66868;42.708;23.404;2023-05-28T11:16:11;95030.25;;;24.58;nan
77702;BME280;66868;42.708;23.404;2023-05-28T11:18:37;95038.03;;;24.73;nan
77702;BME280;66868;42.708;23.404;2023-05-28T11:21:07;95039.75;;;24.95;nan
77702;BME280;66868;42.708;23.404;2023-05-28T11:23:36;95039.38;;;25.13;nan
77702;BME280;66868;42.708;23.404;2023-05-28T11:26:05;95035.97;;;25.27;nan
77702;BME280;66868;42.708;23.404;2023-05-28T11:28:47;95039.47;;;25.70;nan
77702;BME280;66868;42.708;23.404;2023-05-28T11:31:13;95043.59;;;25.85;nan
77702;BME280;66868;42.708;23.404;2023-05-28T11:33:38;94975.66;;;25.54;nan
77702;BME280;66868;42.708;23.404;2023-05-28T11:36:04;95028.78;;;26.01;nan
77702;BME280;66868;42.708;23.404;2023-05-28T11:38:30;95030.78;;;25.99;nan
77702;BME280;66868;42.708;23.404;2023-05-28T11:41:02;95008.22;;;25.78;nan
77702;BME280;66868;42.708;23.404;2023-05-28T11:43:28;95020.75;;;25.95;nan
77702;BME280;66868;42.708;23.404;2023-05-28T11:46:00;95024.09;;;26.11;nan
77702;BME280;66868;42.708;23.404;2023-05-28T11:48:26;95021.88;;;26.29;nan
77702;BME280;66868;42.708;23.404;2023-05-28T11:50:59;95017.63;;;26.49;nan
77702;BME280;66868;42.708;23.404;2023-05-28T11:53:41;95019.59;;;26.75;nan
77702;BME280;66868;42.708;23.404;2023-05-28T11:56:08;95024.38;;;26.71;nan
77702;BME280;66868;42.708;23.404;2023-05-28T11:58:34;95029.34;;;26.73;nan
77702;BME280;66868;42.708;23.404;2023-05-28T12:01:03;95022.06;;;26.55;nan
77702;BME280;66868;42.708;23.404;2023-05-28T12:03:29;95037.16;;;26.45;nan
77702;BME280;66868;42.708;23.404;2023-05-28T12:05:54;95027.44;;;26.26;nan
77702;BME280;66868;42.708;23.404;2023-05-28T12:08:19;95034.28;;;25.91;nan
77702;BME280;66868;42.708;23.404;2023-05-28T12:10:45;94972.28;;;25.39;nan
77702;BME280;66868;42.708;23.404;2023-05-28T12:13:13;95022.84;;;25.64;nan
77702;BME280;66868;42.708;23.404;2023-05-28T12:15:39;95032.50;;;25.70;nan
77702;BME280;66868;42.708;23.404;2023-05-28T12:18:05;95019.63;;;25.62;nan
77702;BME280;66868;42.708;23.404;2023-05-28T12:20:34;95024.72;;;25.70;nan
77702;BME280;66868;42.708;23.404;2023-05-28T12:23:03;95016.56;;;25.73;nan
77702;BME280;66868;42.708;23.404;2023-05-28T12:28:09;95005.69;;;25.63;nan
77702;BME280;66868;42.708;23.404;2023-05-28T12:30:35;95016.88;;;25.49;nan
77702;BME280;66868;42.708;23.404;2023-05-28T12:33:01;95016.88;;;25.49;nan
77702;BME280;66868;42.708;23.404;2023-05-28T12:35:27;95021.13;;;25.71;nan
77702;BME280;66868;42.708;23.404;2023-05-28T12:37:53;94999.47;;;25.79;nan
77702;BME280;66868;42.708;23.404;2023-05-28T12:40:18;95015.69;;;26.30;nan
77702;BME280;66868;42.708;23.404;2023-05-28T12:42:43;95008.69;;;26.86;nan
77702;BME280;66868;42.708;23.404;2023-05-28T12:45:09;94966.31;;;26.86;nan
77702;BME280;66868;42.708;23.404;2023-05-28T12:47:35;95013.31;;;27.45;nan
77702;BME280;66868;42.708;23.404;2023-05-28T12:50:00;95013.19;;;27.59;nan
77702;BME280;66868;42.708;23.404;2023-05-28T12:52:25;95018.19;;;27.54;nan
77702;BME280;66868;42.708;23.404;2023-05-28T12:54:51;95008.50;;;27.35;nan
77702;BME280;66868;42.708;23.404;2023-05-28T12:57:16;94997.31;;;26.94;nan
77702;BME280;66868;42.708;23.404;2023-05-28T12:59:41;94998.06;;;26.53;nan
77702;BME280;66868;42.708;23.404;2023-05-28T13:02:07;94993.88;;;26.52;nan
77702;BME280;66868;42.708;23.404;2023-05-28T13:04:32;94994.38;;;27.10;nan
77702;BME280;66868;42.708;23.404;2023-05-28T13:06:57;94998.28;;;28.14;nan
77702;BME280;66868;42.708;23.404;2023-05-28T13:09:23;95000.69;;;29.19;nan
77702;BME280;66868;42.708;23.404;2023-05-28T13:11:48;94998.41;;;29.42;nan
77702;BME280;66868;42.708;23.404;2023-05-28T13:14:13;94994.91;;;29.17;nan